Het weer levert geen direct gevaar op.    Er zijn geen waarschuwingen afgegeven.








webcam  webcam


webcam 2   webcam 2


Onweer radar Meer informatie blitzortung!


Regen radar Meer informatie rain snow radar


Bezoek onze andere website:

Template documentation
and downloads

And another site

weerstation wsnoordbergum

weerstationlembeke



METAR rapporten vliegvelden

   
EHAM - Amsterdam
Gewijzigd: 21-11-2018 21:55
Grotendeels bewolkt  
Grotendeels bewolkt  
   Wind: Oosten 11.1 km/h
Wind: Oosten 11.1 km/h
Temperatuur: 4°C
Voelt als: 1°C
Dauwpunt: 1°C
Vochtigheid: 81%
Barometer: 1020 hPa
Bewolking: Grotendeels bewolkt
Zicht: meer dan 10 km
Bewolking: Grotendeels bewolkt 1600 ft
EHAM 212055Z 09006KT 9999 BKN016 04/01 Q1020 NOSIG
EHRD - Rotterdam
Gewijzigd: 21-11-2018 21:55
Gedeeltelijk bewolkt  
Gedeeltelijk bewolkt  
   Wind: Oosten 13 km/h
Wind: Oosten 13 km/h
Temperatuur: 4°C
Voelt als: 1°C
Dauwpunt: 1°C
Vochtigheid: 81%
Barometer: 1019 hPa
Bewolking: Gedeeltelijk bewolkt
Zicht: 9 km
Bewolking: Gedeeltelijk bewolkt
EHRD 212055Z AUTO 08007KT 060V120 9000 NSC 04/01 Q1019 BECMG BKN017
EHLW - Leeuwarden
Gewijzigd: 21-11-2018 21:55
Nevel, Bewolking  
Nevel, Bewolking  
   Wind: Oosten 13 km/h
Wind: Oosten 13 km/h
Temperatuur: 1°C
Voelt als: -3°C
Dauwpunt: -1°C
Vochtigheid: 87%
Barometer: 1021 hPa
Bewolking: Bewolking
Zicht: 8 km
Bewolking: Grotendeels bewolkt 4300 ft,
Bewolking 22000 ft
EHLW 212055Z AUTO 08007KT 040V120 8000 BR BKN043 OVC220 01/M01 Q1021 BLU
EHGG - Groningen
Gewijzigd: 21-11-2018 21:55
Grotendeels bewolkt  
Grotendeels bewolkt  
   Wind: Oosten 16.7 km/h
Wind: Oosten 16.7 km/h
Temperatuur: 2°C
Voelt als: -2°C
Dauwpunt: -1°C
Vochtigheid: 81%
Barometer: 1022 hPa
Bewolking: Grotendeels bewolkt
Zicht: 8 km
Bewolking: Grotendeels bewolkt 4700 ft
EHGG 212055Z AUTO 09009KT 050V140 8000 BKN047 02/M01 Q1022 NOSIG
  

Script ontwikkeld door  Saratoga-weather.org Aangepast voor de template door  Weerstation Leuven

U vindt ons ook hier:

Het Weer Aktueel

European Weather Network

WeatherCloud

Weather Underground

AWEKAS

HAMweather, WeatherForYou, PWS Weather

Apparatuur in gebruik:

Weerstation
Davis VP2

Weerprogramma
Meteobridge

Weercomputer
Asus WL -330N3G

Webleverancier
Hostnet

Davis VP2

Meteobridge

Asus WL -330N3G

Hostnet